Terminal Aerodrome Forecast
Issued by NWS Sterling, VA

Current Version | Previous Version | Graphics & Text | Print | Product List | Glossary On
Versions: 1 2 3 4 5 6 7 8 9 10 11 12 13
226
FTUS41 KLWX 252320
TAFMRB
TAF
KMRB 252320Z 2600/2624 28010KT P6SM FEW070
     FM260100 30005KT P6SM FEW200
     FM260300 VRB03KT P6SM FEW200
     FM261500 26008G16KT P6SM SCT070=

USA.gov is the U.S. government's official web portal to all federal, state and local government web resources and services.